sensor_id;sensor_type;location;lat;lon;timestamp;temperature;humidity
26803;DHT22;14378;51.796;5.808;2023-08-08T00:01:15;14.90;99.90
26803;DHT22;14378;51.796;5.808;2023-08-08T00:03:16;14.90;99.90
26803;DHT22;14378;51.796;5.808;2023-08-08T00:05:17;14.90;99.90
26803;DHT22;14378;51.796;5.808;2023-08-08T00:07:18;14.90;99.90
26803;DHT22;14378;51.796;5.808;2023-08-08T00:09:19;14.80;99.90
26803;DHT22;14378;51.796;5.808;2023-08-08T00:11:20;14.80;99.90
26803;DHT22;14378;51.796;5.808;2023-08-08T00:13:21;14.80;99.90
26803;DHT22;14378;51.796;5.808;2023-08-08T00:15:21;14.80;99.90
26803;DHT22;14378;51.796;5.808;2023-08-08T00:17:22;14.80;99.90
26803;DHT22;14378;51.796;5.808;2023-08-08T00:19:23;14.80;99.90
26803;DHT22;14378;51.796;5.808;2023-08-08T00:21:24;14.80;99.90
26803;DHT22;14378;51.796;5.808;2023-08-08T00:23:25;14.80;99.90
26803;DHT22;14378;51.796;5.808;2023-08-08T00:25:25;14.80;99.90
26803;DHT22;14378;51.796;5.808;2023-08-08T00:27:27;14.80;99.90
26803;DHT22;14378;51.796;5.808;2023-08-08T00:29:28;14.80;99.90
26803;DHT22;14378;51.796;5.808;2023-08-08T00:31:29;14.80;99.90
26803;DHT22;14378;51.796;5.808;2023-08-08T00:33:30;14.80;99.90
26803;DHT22;14378;51.796;5.808;2023-08-08T00:35:30;14.80;99.90
26803;DHT22;14378;51.796;5.808;2023-08-08T00:37:31;14.80;99.90
26803;DHT22;14378;51.796;5.808;2023-08-08T00:39:33;14.80;99.90
26803;DHT22;14378;51.796;5.808;2023-08-08T00:41:34;14.80;99.90
26803;DHT22;14378;51.796;5.808;2023-08-08T00:43:36;14.80;99.90
26803;DHT22;14378;51.796;5.808;2023-08-08T00:45:38;14.80;99.90
26803;DHT22;14378;51.796;5.808;2023-08-08T00:47:40;14.90;99.90
26803;DHT22;14378;51.796;5.808;2023-08-08T00:49:40;14.90;99.90
26803;DHT22;14378;51.796;5.808;2023-08-08T00:51:45;14.90;99.90
26803;DHT22;14378;51.796;5.808;2023-08-08T00:53:46;14.90;99.90
26803;DHT22;14378;51.796;5.808;2023-08-08T00:55:48;14.90;99.90
26803;DHT22;14378;51.796;5.808;2023-08-08T00:57:49;14.90;99.90
26803;DHT22;14378;51.796;5.808;2023-08-08T00:59:51;14.90;99.90
26803;DHT22;14378;51.796;5.808;2023-08-08T01:01:52;14.90;99.90
26803;DHT22;14378;51.796;5.808;2023-08-08T01:03:53;14.90;99.90
26803;DHT22;14378;51.796;5.808;2023-08-08T01:06:00;14.90;99.90
26803;DHT22;14378;51.796;5.808;2023-08-08T01:08:07;14.90;99.90
26803;DHT22;14378;51.796;5.808;2023-08-08T01:10:15;14.90;99.90
26803;DHT22;14378;51.796;5.808;2023-08-08T01:12:17;14.90;99.90
26803;DHT22;14378;51.796;5.808;2023-08-08T01:14:19;14.90;99.90
26803;DHT22;14378;51.796;5.808;2023-08-08T01:16:21;14.90;99.90
26803;DHT22;14378;51.796;5.808;2023-08-08T01:18:24;14.90;99.90
26803;DHT22;14378;51.796;5.808;2023-08-08T01:20:25;14.90;99.90
26803;DHT22;14378;51.796;5.808;2023-08-08T01:22:42;14.90;99.90
26803;DHT22;14378;51.796;5.808;2023-08-08T01:24:44;14.90;99.90
26803;DHT22;14378;51.796;5.808;2023-08-08T01:26:46;14.90;99.90
26803;DHT22;14378;51.796;5.808;2023-08-08T01:28:47;14.90;99.90
26803;DHT22;14378;51.796;5.808;2023-08-08T01:30:48;14.90;99.90
26803;DHT22;14378;51.796;5.808;2023-08-08T01:32:49;14.90;99.90
26803;DHT22;14378;51.796;5.808;2023-08-08T01:34:50;14.90;99.90
26803;DHT22;14378;51.796;5.808;2023-08-08T01:37:23;14.90;99.90
26803;DHT22;14378;51.796;5.808;2023-08-08T01:39:27;14.90;99.90
26803;DHT22;14378;51.796;5.808;2023-08-08T01:41:32;14.90;99.90
26803;DHT22;14378;51.796;5.808;2023-08-08T01:43:34;14.90;99.90
26803;DHT22;14378;51.796;5.808;2023-08-08T01:45:36;14.90;99.90
26803;DHT22;14378;51.796;5.808;2023-08-08T01:47:38;14.90;99.90
26803;DHT22;14378;51.796;5.808;2023-08-08T01:49:39;14.90;99.90
26803;DHT22;14378;51.796;5.808;2023-08-08T01:51:39;14.90;99.90
26803;DHT22;14378;51.796;5.808;2023-08-08T01:53:42;14.90;99.90
26803;DHT22;14378;51.796;5.808;2023-08-08T01:55:43;14.90;99.90
26803;DHT22;14378;51.796;5.808;2023-08-08T01:57:46;14.90;99.90
26803;DHT22;14378;51.796;5.808;2023-08-08T01:59:46;14.80;99.90
26803;DHT22;14378;51.796;5.808;2023-08-08T02:01:48;14.90;99.90
26803;DHT22;14378;51.796;5.808;2023-08-08T02:03:49;14.90;99.90
26803;DHT22;14378;51.796;5.808;2023-08-08T02:05:50;14.90;99.90
26803;DHT22;14378;51.796;5.808;2023-08-08T02:07:51;14.90;99.90
26803;DHT22;14378;51.796;5.808;2023-08-08T02:09:51;14.90;99.90
26803;DHT22;14378;51.796;5.808;2023-08-08T02:11:53;14.90;99.90
26803;DHT22;14378;51.796;5.808;2023-08-08T02:13:53;14.90;99.90
26803;DHT22;14378;51.796;5.808;2023-08-08T02:15:54;14.90;99.90
26803;DHT22;14378;51.796;5.808;2023-08-08T02:17:55;14.90;99.90
26803;DHT22;14378;51.796;5.808;2023-08-08T02:19:57;14.90;99.90
26803;DHT22;14378;51.796;5.808;2023-08-08T02:21:57;14.90;99.90
26803;DHT22;14378;51.796;5.808;2023-08-08T02:23:58;14.90;99.90
26803;DHT22;14378;51.796;5.808;2023-08-08T02:26:00;14.90;99.90
26803;DHT22;14378;51.796;5.808;2023-08-08T02:28:00;15.00;99.90
26803;DHT22;14378;51.796;5.808;2023-08-08T02:30:02;14.90;99.90
26803;DHT22;14378;51.796;5.808;2023-08-08T02:32:03;14.90;99.90
26803;DHT22;14378;51.796;5.808;2023-08-08T02:34:04;14.90;99.90
26803;DHT22;14378;51.796;5.808;2023-08-08T02:36:05;14.90;99.90
26803;DHT22;14378;51.796;5.808;2023-08-08T02:38:06;14.90;99.90
26803;DHT22;14378;51.796;5.808;2023-08-08T02:40:07;14.90;99.90
26803;DHT22;14378;51.796;5.808;2023-08-08T02:42:08;14.90;99.90
26803;DHT22;14378;51.796;5.808;2023-08-08T02:44:10;14.90;99.90
26803;DHT22;14378;51.796;5.808;2023-08-08T02:46:12;14.90;99.90
26803;DHT22;14378;51.796;5.808;2023-08-08T02:48:13;14.90;99.90
26803;DHT22;14378;51.796;5.808;2023-08-08T02:50:14;14.90;99.90
26803;DHT22;14378;51.796;5.808;2023-08-08T02:52:15;14.80;99.90
26803;DHT22;14378;51.796;5.808;2023-08-08T02:54:15;14.80;99.90
26803;DHT22;14378;51.796;5.808;2023-08-08T02:56:17;14.70;99.90
26803;DHT22;14378;51.796;5.808;2023-08-08T02:58:18;14.70;99.90
26803;DHT22;14378;51.796;5.808;2023-08-08T03:00:20;14.70;99.90
26803;DHT22;14378;51.796;5.808;2023-08-08T03:02:24;14.70;99.90
26803;DHT22;14378;51.796;5.808;2023-08-08T03:04:26;14.60;99.90
26803;DHT22;14378;51.796;5.808;2023-08-08T03:06:27;14.60;99.90
26803;DHT22;14378;51.796;5.808;2023-08-08T03:08:27;14.60;99.90
26803;DHT22;14378;51.796;5.808;2023-08-08T03:10:29;14.60;99.90
26803;DHT22;14378;51.796;5.808;2023-08-08T03:12:30;14.60;99.90
26803;DHT22;14378;51.796;5.808;2023-08-08T03:14:31;14.50;99.90
26803;DHT22;14378;51.796;5.808;2023-08-08T03:16:34;14.50;99.90
26803;DHT22;14378;51.796;5.808;2023-08-08T03:18:36;14.50;99.90
26803;DHT22;14378;51.796;5.808;2023-08-08T03:20:37;14.50;99.90
26803;DHT22;14378;51.796;5.808;2023-08-08T03:22:39;14.50;99.90
26803;DHT22;14378;51.796;5.808;2023-08-08T03:24:42;14.50;99.90
26803;DHT22;14378;51.796;5.808;2023-08-08T03:26:42;14.50;99.90
26803;DHT22;14378;51.796;5.808;2023-08-08T03:28:43;14.50;99.90
26803;DHT22;14378;51.796;5.808;2023-08-08T03:30:44;14.40;99.90
26803;DHT22;14378;51.796;5.808;2023-08-08T03:32:47;14.40;99.90
26803;DHT22;14378;51.796;5.808;2023-08-08T03:34:49;14.40;99.90
26803;DHT22;14378;51.796;5.808;2023-08-08T03:36:50;14.40;99.90
26803;DHT22;14378;51.796;5.808;2023-08-08T03:38:51;14.40;99.90
26803;DHT22;14378;51.796;5.808;2023-08-08T03:40:55;14.30;99.90
26803;DHT22;14378;51.796;5.808;2023-08-08T03:42:57;14.30;99.90
26803;DHT22;14378;51.796;5.808;2023-08-08T03:44:58;14.30;99.90
26803;DHT22;14378;51.796;5.808;2023-08-08T03:46:59;14.20;99.90
26803;DHT22;14378;51.796;5.808;2023-08-08T03:48:59;14.20;99.90
26803;DHT22;14378;51.796;5.808;2023-08-08T03:51:00;14.20;99.90
26803;DHT22;14378;51.796;5.808;2023-08-08T03:53:01;14.20;99.90
26803;DHT22;14378;51.796;5.808;2023-08-08T03:55:03;14.20;99.90
26803;DHT22;14378;51.796;5.808;2023-08-08T03:57:05;14.20;99.90
26803;DHT22;14378;51.796;5.808;2023-08-08T03:59:06;14.20;99.90
26803;DHT22;14378;51.796;5.808;2023-08-08T04:01:07;14.20;99.90
26803;DHT22;14378;51.796;5.808;2023-08-08T04:03:08;14.20;99.90
26803;DHT22;14378;51.796;5.808;2023-08-08T04:05:09;14.20;99.90
26803;DHT22;14378;51.796;5.808;2023-08-08T04:07:10;14.20;99.90
26803;DHT22;14378;51.796;5.808;2023-08-08T04:09:11;14.10;99.90
26803;DHT22;14378;51.796;5.808;2023-08-08T04:11:11;14.20;99.90
26803;DHT22;14378;51.796;5.808;2023-08-08T04:13:12;14.10;99.90
26803;DHT22;14378;51.796;5.808;2023-08-08T04:15:13;14.20;99.90
26803;DHT22;14378;51.796;5.808;2023-08-08T04:17:14;14.20;99.90
26803;DHT22;14378;51.796;5.808;2023-08-08T04:19:15;14.20;99.90
26803;DHT22;14378;51.796;5.808;2023-08-08T04:21:16;14.10;99.90
26803;DHT22;14378;51.796;5.808;2023-08-08T04:23:17;14.10;99.90
26803;DHT22;14378;51.796;5.808;2023-08-08T04:25:18;14.10;99.90
26803;DHT22;14378;51.796;5.808;2023-08-08T04:27:20;14.20;99.90
26803;DHT22;14378;51.796;5.808;2023-08-08T04:29:20;14.10;99.90
26803;DHT22;14378;51.796;5.808;2023-08-08T04:31:21;14.20;99.90
26803;DHT22;14378;51.796;5.808;2023-08-08T04:33:25;14.20;99.90
26803;DHT22;14378;51.796;5.808;2023-08-08T04:35:26;14.20;99.90
26803;DHT22;14378;51.796;5.808;2023-08-08T04:37:26;14.20;99.90
26803;DHT22;14378;51.796;5.808;2023-08-08T04:39:27;14.20;99.90
26803;DHT22;14378;51.796;5.808;2023-08-08T04:41:29;14.20;99.90
26803;DHT22;14378;51.796;5.808;2023-08-08T04:43:30;14.20;99.90
26803;DHT22;14378;51.796;5.808;2023-08-08T04:45:31;14.30;99.90
26803;DHT22;14378;51.796;5.808;2023-08-08T04:47:32;14.30;99.90
26803;DHT22;14378;51.796;5.808;2023-08-08T04:49:32;14.30;99.90
26803;DHT22;14378;51.796;5.808;2023-08-08T04:51:33;14.40;99.90
26803;DHT22;14378;51.796;5.808;2023-08-08T04:53:34;14.30;99.90
26803;DHT22;14378;51.796;5.808;2023-08-08T04:55:35;14.40;99.90
26803;DHT22;14378;51.796;5.808;2023-08-08T04:57:36;14.40;99.90
26803;DHT22;14378;51.796;5.808;2023-08-08T04:59:37;14.40;99.90
26803;DHT22;14378;51.796;5.808;2023-08-08T05:01:38;14.40;99.90
26803;DHT22;14378;51.796;5.808;2023-08-08T05:03:38;14.40;99.90
26803;DHT22;14378;51.796;5.808;2023-08-08T05:05:39;14.40;99.90
26803;DHT22;14378;51.796;5.808;2023-08-08T05:07:40;14.40;99.90
26803;DHT22;14378;51.796;5.808;2023-08-08T05:09:41;14.50;99.90
26803;DHT22;14378;51.796;5.808;2023-08-08T05:11:42;14.50;99.90
26803;DHT22;14378;51.796;5.808;2023-08-08T05:13:46;14.40;99.90
26803;DHT22;14378;51.796;5.808;2023-08-08T05:15:47;14.50;99.90
26803;DHT22;14378;51.796;5.808;2023-08-08T05:17:47;14.50;99.90
26803;DHT22;14378;51.796;5.808;2023-08-08T05:19:48;14.50;99.90
26803;DHT22;14378;51.796;5.808;2023-08-08T05:21:49;14.50;99.90
26803;DHT22;14378;51.796;5.808;2023-08-08T05:23:50;14.50;99.90
26803;DHT22;14378;51.796;5.808;2023-08-08T05:25:51;14.50;99.90
26803;DHT22;14378;51.796;5.808;2023-08-08T05:27:52;14.50;99.90
26803;DHT22;14378;51.796;5.808;2023-08-08T05:29:54;14.60;99.90
26803;DHT22;14378;51.796;5.808;2023-08-08T05:31:55;14.60;99.90
26803;DHT22;14378;51.796;5.808;2023-08-08T05:33:55;14.60;99.90
26803;DHT22;14378;51.796;5.808;2023-08-08T05:35:56;14.60;99.90
26803;DHT22;14378;51.796;5.808;2023-08-08T05:37:57;14.70;99.90
26803;DHT22;14378;51.796;5.808;2023-08-08T05:39:58;14.70;99.90
26803;DHT22;14378;51.796;5.808;2023-08-08T05:41:58;14.70;99.90
26803;DHT22;14378;51.796;5.808;2023-08-08T05:43:59;14.70;99.90
26803;DHT22;14378;51.796;5.808;2023-08-08T05:46:00;14.70;99.90
26803;DHT22;14378;51.796;5.808;2023-08-08T05:48:01;14.70;99.90
26803;DHT22;14378;51.796;5.808;2023-08-08T05:50:02;14.80;99.90
26803;DHT22;14378;51.796;5.808;2023-08-08T05:52:03;14.80;99.90
26803;DHT22;14378;51.796;5.808;2023-08-08T05:54:04;14.80;99.90
26803;DHT22;14378;51.796;5.808;2023-08-08T05:56:04;14.90;99.90
26803;DHT22;14378;51.796;5.808;2023-08-08T05:58:05;14.90;99.90
26803;DHT22;14378;51.796;5.808;2023-08-08T06:00:07;14.90;99.90
26803;DHT22;14378;51.796;5.808;2023-08-08T06:02:13;14.90;99.90
26803;DHT22;14378;51.796;5.808;2023-08-08T06:04:14;14.90;99.90
26803;DHT22;14378;51.796;5.808;2023-08-08T06:06:15;15.00;99.90
26803;DHT22;14378;51.796;5.808;2023-08-08T06:08:19;15.00;99.90
26803;DHT22;14378;51.796;5.808;2023-08-08T06:10:20;15.00;99.90
26803;DHT22;14378;51.796;5.808;2023-08-08T06:12:21;15.10;99.90
26803;DHT22;14378;51.796;5.808;2023-08-08T06:14:22;15.10;99.90
26803;DHT22;14378;51.796;5.808;2023-08-08T06:16:23;15.20;99.90
26803;DHT22;14378;51.796;5.808;2023-08-08T06:18:25;15.20;99.90
26803;DHT22;14378;51.796;5.808;2023-08-08T06:20:26;15.20;99.90
26803;DHT22;14378;51.796;5.808;2023-08-08T06:22:26;15.30;99.90
26803;DHT22;14378;51.796;5.808;2023-08-08T06:24:28;15.30;99.90
26803;DHT22;14378;51.796;5.808;2023-08-08T06:26:28;15.30;99.90
26803;DHT22;14378;51.796;5.808;2023-08-08T06:28:29;15.40;99.90
26803;DHT22;14378;51.796;5.808;2023-08-08T06:30:30;15.50;99.90
26803;DHT22;14378;51.796;5.808;2023-08-08T06:32:31;15.50;99.90
26803;DHT22;14378;51.796;5.808;2023-08-08T06:34:32;15.50;99.90
26803;DHT22;14378;51.796;5.808;2023-08-08T06:36:33;15.60;99.90
26803;DHT22;14378;51.796;5.808;2023-08-08T06:38:34;15.60;99.90
26803;DHT22;14378;51.796;5.808;2023-08-08T06:40:37;15.60;99.90
26803;DHT22;14378;51.796;5.808;2023-08-08T06:42:38;15.70;99.90
26803;DHT22;14378;51.796;5.808;2023-08-08T06:44:44;15.70;99.90
26803;DHT22;14378;51.796;5.808;2023-08-08T06:46:46;15.80;99.90
26803;DHT22;14378;51.796;5.808;2023-08-08T06:48:47;15.80;99.90
26803;DHT22;14378;51.796;5.808;2023-08-08T06:50:48;15.90;99.90
26803;DHT22;14378;51.796;5.808;2023-08-08T06:52:49;15.90;99.90
26803;DHT22;14378;51.796;5.808;2023-08-08T06:54:51;16.00;99.90
26803;DHT22;14378;51.796;5.808;2023-08-08T06:56:52;16.00;99.90
26803;DHT22;14378;51.796;5.808;2023-08-08T06:58:53;16.00;99.90
26803;DHT22;14378;51.796;5.808;2023-08-08T07:00:54;16.10;99.90
26803;DHT22;14378;51.796;5.808;2023-08-08T07:02:55;16.10;99.90
26803;DHT22;14378;51.796;5.808;2023-08-08T07:04:56;16.20;99.90
26803;DHT22;14378;51.796;5.808;2023-08-08T07:06:57;16.20;99.90
26803;DHT22;14378;51.796;5.808;2023-08-08T07:08:58;16.20;99.90
26803;DHT22;14378;51.796;5.808;2023-08-08T07:10:59;16.30;99.90
26803;DHT22;14378;51.796;5.808;2023-08-08T07:13:00;16.30;99.90
26803;DHT22;14378;51.796;5.808;2023-08-08T07:15:01;16.30;99.90
26803;DHT22;14378;51.796;5.808;2023-08-08T07:17:02;16.30;99.90
26803;DHT22;14378;51.796;5.808;2023-08-08T07:19:04;16.40;99.90
26803;DHT22;14378;51.796;5.808;2023-08-08T07:21:06;16.50;99.90
26803;DHT22;14378;51.796;5.808;2023-08-08T07:23:07;16.50;99.90
26803;DHT22;14378;51.796;5.808;2023-08-08T07:25:08;16.60;99.90
26803;DHT22;14378;51.796;5.808;2023-08-08T07:27:09;16.60;99.90
26803;DHT22;14378;51.796;5.808;2023-08-08T07:29:10;16.70;99.90
26803;DHT22;14378;51.796;5.808;2023-08-08T07:31:11;16.70;99.90
26803;DHT22;14378;51.796;5.808;2023-08-08T07:33:12;16.70;99.90
26803;DHT22;14378;51.796;5.808;2023-08-08T07:35:14;16.80;99.90
26803;DHT22;14378;51.796;5.808;2023-08-08T07:37:15;16.90;99.90
26803;DHT22;14378;51.796;5.808;2023-08-08T07:39:16;16.90;99.90
26803;DHT22;14378;51.796;5.808;2023-08-08T07:41:17;17.00;99.90
26803;DHT22;14378;51.796;5.808;2023-08-08T07:43:21;17.10;99.90
26803;DHT22;14378;51.796;5.808;2023-08-08T07:45:26;17.20;99.90
26803;DHT22;14378;51.796;5.808;2023-08-08T07:47:26;17.40;99.90
26803;DHT22;14378;51.796;5.808;2023-08-08T07:49:27;17.50;99.90
26803;DHT22;14378;51.796;5.808;2023-08-08T07:51:28;17.50;99.90
26803;DHT22;14378;51.796;5.808;2023-08-08T07:53:29;17.60;99.90
26803;DHT22;14378;51.796;5.808;2023-08-08T07:55:30;17.70;99.90
26803;DHT22;14378;51.796;5.808;2023-08-08T07:57:32;17.70;99.90
26803;DHT22;14378;51.796;5.808;2023-08-08T07:59:35;17.90;99.90
26803;DHT22;14378;51.796;5.808;2023-08-08T08:01:36;17.90;99.90
26803;DHT22;14378;51.796;5.808;2023-08-08T08:03:37;18.00;99.90
26803;DHT22;14378;51.796;5.808;2023-08-08T08:05:38;18.10;99.90
26803;DHT22;14378;51.796;5.808;2023-08-08T08:07:39;18.30;99.90
26803;DHT22;14378;51.796;5.808;2023-08-08T08:09:41;18.30;99.90
26803;DHT22;14378;51.796;5.808;2023-08-08T08:11:43;18.40;99.90
26803;DHT22;14378;51.796;5.808;2023-08-08T08:13:43;18.50;99.90
26803;DHT22;14378;51.796;5.808;2023-08-08T08:15:44;18.60;99.90
26803;DHT22;14378;51.796;5.808;2023-08-08T08:17:46;18.70;99.90
26803;DHT22;14378;51.796;5.808;2023-08-08T08:19:47;18.70;99.90
26803;DHT22;14378;51.796;5.808;2023-08-08T08:21:47;18.90;99.90
26803;DHT22;14378;51.796;5.808;2023-08-08T08:23:48;18.90;99.90
26803;DHT22;14378;51.796;5.808;2023-08-08T08:25:49;18.90;99.90
26803;DHT22;14378;51.796;5.808;2023-08-08T08:27:51;19.00;99.90
26803;DHT22;14378;51.796;5.808;2023-08-08T08:29:52;19.00;99.90
26803;DHT22;14378;51.796;5.808;2023-08-08T08:31:53;19.10;99.90
26803;DHT22;14378;51.796;5.808;2023-08-08T08:33:54;19.20;99.90
26803;DHT22;14378;51.796;5.808;2023-08-08T08:35:55;19.30;99.90
26803;DHT22;14378;51.796;5.808;2023-08-08T08:37:56;19.40;99.90
26803;DHT22;14378;51.796;5.808;2023-08-08T08:39:58;19.40;99.90
26803;DHT22;14378;51.796;5.808;2023-08-08T08:42:00;19.30;99.90
26803;DHT22;14378;51.796;5.808;2023-08-08T08:44:04;19.40;99.90
26803;DHT22;14378;51.796;5.808;2023-08-08T08:46:07;19.50;99.90
26803;DHT22;14378;51.796;5.808;2023-08-08T08:48:12;19.60;99.90
26803;DHT22;14378;51.796;5.808;2023-08-08T08:50:15;19.70;99.90
26803;DHT22;14378;51.796;5.808;2023-08-08T08:52:18;19.80;99.90
26803;DHT22;14378;51.796;5.808;2023-08-08T08:54:19;19.80;99.90
26803;DHT22;14378;51.796;5.808;2023-08-08T08:56:21;19.80;99.90
26803;DHT22;14378;51.796;5.808;2023-08-08T08:58:25;19.80;99.90
26803;DHT22;14378;51.796;5.808;2023-08-08T09:00:26;19.80;99.90
26803;DHT22;14378;51.796;5.808;2023-08-08T09:02:27;19.90;99.90
26803;DHT22;14378;51.796;5.808;2023-08-08T09:04:29;20.10;99.90
26803;DHT22;14378;51.796;5.808;2023-08-08T09:06:31;20.20;99.90
26803;DHT22;14378;51.796;5.808;2023-08-08T09:08:33;20.30;99.90
26803;DHT22;14378;51.796;5.808;2023-08-08T09:10:35;20.30;99.90
26803;DHT22;14378;51.796;5.808;2023-08-08T09:12:36;20.30;99.90
26803;DHT22;14378;51.796;5.808;2023-08-08T09:14:40;20.30;99.90
26803;DHT22;14378;51.796;5.808;2023-08-08T09:16:42;20.30;99.90
26803;DHT22;14378;51.796;5.808;2023-08-08T09:18:44;20.40;99.90
26803;DHT22;14378;51.796;5.808;2023-08-08T09:20:48;20.60;99.90
26803;DHT22;14378;51.796;5.808;2023-08-08T09:22:51;20.60;99.90
26803;DHT22;14378;51.796;5.808;2023-08-08T09:24:53;20.70;99.90
26803;DHT22;14378;51.796;5.808;2023-08-08T09:26:54;20.70;99.90
26803;DHT22;14378;51.796;5.808;2023-08-08T09:28:55;20.80;99.90
26803;DHT22;14378;51.796;5.808;2023-08-08T09:30:56;20.90;99.90
26803;DHT22;14378;51.796;5.808;2023-08-08T09:33:01;21.00;99.90
26803;DHT22;14378;51.796;5.808;2023-08-08T09:35:03;21.10;99.90
26803;DHT22;14378;51.796;5.808;2023-08-08T09:37:06;21.10;99.90
26803;DHT22;14378;51.796;5.808;2023-08-08T09:39:07;21.10;99.90
26803;DHT22;14378;51.796;5.808;2023-08-08T09:41:08;21.10;99.90
26803;DHT22;14378;51.796;5.808;2023-08-08T09:43:09;21.20;99.90
26803;DHT22;14378;51.796;5.808;2023-08-08T09:45:10;21.20;99.90
26803;DHT22;14378;51.796;5.808;2023-08-08T09:47:12;21.30;99.90
26803;DHT22;14378;51.796;5.808;2023-08-08T09:49:14;21.40;99.90
26803;DHT22;14378;51.796;5.808;2023-08-08T09:51:17;21.50;99.90
26803;DHT22;14378;51.796;5.808;2023-08-08T09:53:18;21.50;99.90
26803;DHT22;14378;51.796;5.808;2023-08-08T09:55:20;21.40;99.90
26803;DHT22;14378;51.796;5.808;2023-08-08T09:57:22;21.40;99.90
26803;DHT22;14378;51.796;5.808;2023-08-08T09:59:23;21.40;99.90
26803;DHT22;14378;51.796;5.808;2023-08-08T10:01:25;21.40;99.90
26803;DHT22;14378;51.796;5.808;2023-08-08T10:03:27;21.40;99.90
26803;DHT22;14378;51.796;5.808;2023-08-08T10:05:29;21.40;99.90
26803;DHT22;14378;51.796;5.808;2023-08-08T10:07:31;21.40;99.90
26803;DHT22;14378;51.796;5.808;2023-08-08T10:09:32;21.30;99.90
26803;DHT22;14378;51.796;5.808;2023-08-08T10:11:34;21.50;99.90
26803;DHT22;14378;51.796;5.808;2023-08-08T10:13:36;21.50;99.90
26803;DHT22;14378;51.796;5.808;2023-08-08T10:15:38;21.50;99.90
26803;DHT22;14378;51.796;5.808;2023-08-08T10:17:41;21.40;99.90
26803;DHT22;14378;51.796;5.808;2023-08-08T10:19:55;21.60;99.90
26803;DHT22;14378;51.796;5.808;2023-08-08T10:22:00;21.70;99.90
26803;DHT22;14378;51.796;5.808;2023-08-08T10:24:10;21.70;99.90
26803;DHT22;14378;51.796;5.808;2023-08-08T10:26:20;21.70;99.90
26803;DHT22;14378;51.796;5.808;2023-08-08T10:28:22;21.70;99.90
26803;DHT22;14378;51.796;5.808;2023-08-08T10:30:23;21.70;99.90
26803;DHT22;14378;51.796;5.808;2023-08-08T10:32:25;21.50;99.90
26803;DHT22;14378;51.796;5.808;2023-08-08T10:34:46;21.30;99.90
26803;DHT22;14378;51.796;5.808;2023-08-08T10:36:51;21.30;99.90
26803;DHT22;14378;51.796;5.808;2023-08-08T10:38:57;21.50;99.90
26803;DHT22;14378;51.796;5.808;2023-08-08T10:41:02;21.70;99.90
26803;DHT22;14378;51.796;5.808;2023-08-08T10:43:11;21.60;99.90
26803;DHT22;14378;51.796;5.808;2023-08-08T10:45:15;21.80;99.90
26803;DHT22;14378;51.796;5.808;2023-08-08T10:47:23;22.10;99.90
26803;DHT22;14378;51.796;5.808;2023-08-08T10:49:25;22.30;99.90
26803;DHT22;14378;51.796;5.808;2023-08-08T10:53:36;22.40;99.90
26803;DHT22;14378;51.796;5.808;2023-08-08T10:55:37;22.50;99.90
26803;DHT22;14378;51.796;5.808;2023-08-08T10:57:38;22.60;99.90
26803;DHT22;14378;51.796;5.808;2023-08-08T10:59:39;22.60;99.90
26803;DHT22;14378;51.796;5.808;2023-08-08T11:01:40;22.60;99.90
26803;DHT22;14378;51.796;5.808;2023-08-08T11:03:42;22.70;99.90
26803;DHT22;14378;51.796;5.808;2023-08-08T11:05:46;22.60;99.90
26803;DHT22;14378;51.796;5.808;2023-08-08T11:07:49;22.60;99.90
26803;DHT22;14378;51.796;5.808;2023-08-08T11:09:51;22.40;99.90
26803;DHT22;14378;51.796;5.808;2023-08-08T11:11:52;22.40;99.90
26803;DHT22;14378;51.796;5.808;2023-08-08T11:13:53;22.40;99.90
26803;DHT22;14378;51.796;5.808;2023-08-08T11:15:56;22.40;99.90
26803;DHT22;14378;51.796;5.808;2023-08-08T11:17:58;22.50;99.90
26803;DHT22;14378;51.796;5.808;2023-08-08T11:20:00;22.60;99.90
26803;DHT22;14378;51.796;5.808;2023-08-08T11:22:09;22.60;99.90
26803;DHT22;14378;51.796;5.808;2023-08-08T11:24:12;22.60;99.90
26803;DHT22;14378;51.796;5.808;2023-08-08T11:26:17;22.70;99.90
26803;DHT22;14378;51.796;5.808;2023-08-08T11:28:18;22.80;99.90
26803;DHT22;14378;51.796;5.808;2023-08-08T11:30:20;23.00;99.90
26803;DHT22;14378;51.796;5.808;2023-08-08T11:32:22;23.30;99.90
26803;DHT22;14378;51.796;5.808;2023-08-08T11:34:22;23.60;99.90
26803;DHT22;14378;51.796;5.808;2023-08-08T11:36:23;23.60;99.90
26803;DHT22;14378;51.796;5.808;2023-08-08T11:38:24;23.60;99.90
26803;DHT22;14378;51.796;5.808;2023-08-08T11:40:27;23.40;99.90
26803;DHT22;14378;51.796;5.808;2023-08-08T11:42:28;23.50;99.90
26803;DHT22;14378;51.796;5.808;2023-08-08T11:44:29;23.60;99.90
26803;DHT22;14378;51.796;5.808;2023-08-08T11:46:31;23.70;99.90
26803;DHT22;14378;51.796;5.808;2023-08-08T11:48:33;23.80;99.90
26803;DHT22;14378;51.796;5.808;2023-08-08T11:50:37;23.80;99.90
26803;DHT22;14378;51.796;5.808;2023-08-08T11:52:42;23.90;99.90
26803;DHT22;14378;51.796;5.808;2023-08-08T11:54:43;24.10;99.90
26803;DHT22;14378;51.796;5.808;2023-08-08T11:56:44;24.20;99.90
26803;DHT22;14378;51.796;5.808;2023-08-08T11:58:45;24.10;99.90
26803;DHT22;14378;51.796;5.808;2023-08-08T12:00:46;24.10;99.90
26803;DHT22;14378;51.796;5.808;2023-08-08T12:02:47;24.10;99.90
26803;DHT22;14378;51.796;5.808;2023-08-08T12:04:51;24.00;99.90
26803;DHT22;14378;51.796;5.808;2023-08-08T12:07:01;24.10;99.90
26803;DHT22;14378;51.796;5.808;2023-08-08T12:09:02;24.10;99.90
26803;DHT22;14378;51.796;5.808;2023-08-08T12:11:03;24.00;99.90
26803;DHT22;14378;51.796;5.808;2023-08-08T12:13:07;24.00;99.90
26803;DHT22;14378;51.796;5.808;2023-08-08T12:15:10;24.10;99.90
26803;DHT22;14378;51.796;5.808;2023-08-08T12:17:11;24.20;99.90
26803;DHT22;14378;51.796;5.808;2023-08-08T12:19:13;24.10;99.90
26803;DHT22;14378;51.796;5.808;2023-08-08T12:21:18;24.00;99.90
26803;DHT22;14378;51.796;5.808;2023-08-08T12:23:19;23.80;99.90
26803;DHT22;14378;51.796;5.808;2023-08-08T12:25:20;23.60;99.90
26803;DHT22;14378;51.796;5.808;2023-08-08T12:27:20;23.20;99.90
26803;DHT22;14378;51.796;5.808;2023-08-08T12:29:21;22.90;99.90
26803;DHT22;14378;51.796;5.808;2023-08-08T12:31:22;22.80;99.90
26803;DHT22;14378;51.796;5.808;2023-08-08T12:33:23;22.70;99.90
26803;DHT22;14378;51.796;5.808;2023-08-08T12:35:24;22.80;99.90
26803;DHT22;14378;51.796;5.808;2023-08-08T12:37:27;22.80;99.90
26803;DHT22;14378;51.796;5.808;2023-08-08T12:39:28;22.80;99.90
26803;DHT22;14378;51.796;5.808;2023-08-08T12:41:29;23.00;99.90
26803;DHT22;14378;51.796;5.808;2023-08-08T12:43:30;22.80;99.90
26803;DHT22;14378;51.796;5.808;2023-08-08T12:45:31;22.70;99.90
26803;DHT22;14378;51.796;5.808;2023-08-08T12:47:32;22.70;99.90
26803;DHT22;14378;51.796;5.808;2023-08-08T12:49:37;22.80;99.90
26803;DHT22;14378;51.796;5.808;2023-08-08T12:51:40;22.90;99.90